メインページ
METAR-TAF:

METAR-TAF

空港 :

バンクーバー国際空港

バンクーバー, ブリティッシュコロンビア州, カナダ

緯度: 49-11N, 経度: 123-10W, 海抜: 3m

現時点の気象観測

当レポートは1時間1分前の23:00(UTC)に作成
西/北西の風 11kt
気温 25°C
湿度 57%
気圧 1015 hPa
視程: 48.3km
晴天

METAR: CYVR 162300Z 29011KT 30SM SKC 25/16 A2998 RMK SLP155 DENSITY ALT 1100FT

時間: 17:01 (00:01 UTC)

予報

当レポートは23分前の23:38(UTC)に作成
予報は17日の 00時(UTC)から 18日の 06時(UTC)まで有効
西/北西の風 10kt
視程: 10km
晴天
17日の 06時(UTC)から 17日の 08時(UTC)まで徐々に
の風 6kt
17日の 15時(UTC)から 17日の 17時(UTC)まで徐々に
西/南西の風 8kt

TAF: CYVR 162338Z 1700/1806 29010KT P6SM SKC BECMG 1706/1708 10006KT BECMG 1715/1717 24008KT RMK NXT FCST BY 170300Z

4,000以上の空港の気象観測と天気予報(METAR報とTAF報)

利用可能な観測所は地図上に黄色い丸と赤い丸で示す。

丸の上にカーソルを重ねると観測所名を参照できる。

次にクリックすると気象観測と天気予報を参照できる。

マップの切り替え:黒色「×」印の緑ボタンをクリックして拡大、「-」印の緑ボタンをクリックして縮小、緑色の三角印をクリックして隣りの地図に切り替え


METAR-TAF: